Clorinda, Argentina
Current Conditions -  °F | °C
As of 12:00 AM on Saturday 01 Nov 2014 (Local Time) from SGAS Reporting Station
Thunderstorm Thunderstorm  
Wind Chill: 82°   Ceiling: 7000
Heat Index: 89°   Visibility: 6mi
Dew Point: 75°   Wind: 3mph
Humidity: 79%   Direction: 150°SSE
Pressure: 29.77"   Gusts: NA
Location:  25.29°S, 57.72°W
Report Text: SGAS 010300Z 15003KT 9999 TS SCT030 FEW040CB BKN070 28/24 Q1008
Loading
Personal Weather Stations






























Interactive Weather Map
Tropical Storm Tracking
New forecast layout! Learn more

10-Day Weather Forecast

Advertisements
Track Severe Weather on mobile